Time;durP1;ratioP1;P1;durP2;ratioP2;P2;SDS_P1;SDS_P2;PMS_P1;PMS_P2;Temp;Humidity;BMP_temperature;BMP_pressure;BME280_temperature;BME280_humidity;BME280_pressure;Samples;Min_cycle;Max_cycle;Signal;HPM_P1;HPM_P2
2022/03/23 00:01:26;;;;;;;5.80;5.07;;;9.40;1.00;;;;;;5090713;28;20201;-73
2022/03/23 00:03:53;;;;;;;7.77;5.73;;;9.40;1.00;;;;;;5090390;28;20251;-72
2022/03/23 00:06:21;;;;;;;6.47;4.47;;;9.30;1.00;;;;;;5090489;28;20240;-73
2022/03/23 00:08:49;;;;;;;7.57;5.40;;;9.30;1.00;;;;;;5090162;28;20254;-71
2022/03/23 00:11:17;;;;;;;5.97;4.77;;;9.20;1.00;;;;;;5090544;28;20233;-71
2022/03/23 00:13:44;;;;;;;5.83;5.30;;;9.20;1.00;;;;;;5090785;28;20206;-72
2022/03/23 00:16:11;;;;;;;8.00;5.13;;;9.30;1.00;;;;;;5090499;28;20279;-72
2022/03/23 00:18:38;;;;;;;7.30;5.20;;;9.20;1.00;;;;;;5090674;28;20231;-71
2022/03/23 00:21:05;;;;;;;7.40;5.30;;;9.40;1.00;;;;;;5090213;28;20783;-72
2022/03/23 00:23:32;;;;;;;7.73;4.63;;;9.40;1.00;;;;;;5090508;28;20202;-71
2022/03/23 00:26:01;;;;;;;5.77;5.13;;;9.40;1.00;;;;;;5090233;28;20201;-71
2022/03/23 00:28:28;;;;;;;6.50;4.37;;;9.40;1.00;;;;;;5092740;28;20241;-70
2022/03/23 00:30:56;;;;;;;7.57;5.00;;;9.30;1.00;;;;;;5093907;28;20269;-70
2022/03/23 00:33:22;;;;;;;9.77;7.13;;;9.20;1.00;;;;;;5094508;28;20206;-72
2022/03/23 00:35:49;;;;;;;7.17;5.67;;;9.30;1.00;;;;;;5093889;28;20202;-71
2022/03/23 00:38:18;;;;;;;5.33;4.83;;;9.30;1.00;;;;;;5094210;28;20306;-71
2022/03/23 00:40:46;;;;;;;5.90;5.30;;;9.30;1.00;;;;;;5094048;28;20240;-70
2022/03/23 00:43:15;;;;;;;7.43;4.67;;;9.40;1.00;;;;;;5094251;28;20201;-71
2022/03/23 00:45:42;;;;;;;5.43;4.87;;;9.40;1.00;;;;;;5094444;28;20202;-73
2022/03/23 00:48:10;;;;;;;8.67;4.80;;;9.30;1.00;;;;;;5093676;28;20210;-71
2022/03/23 00:50:37;;;;;;;8.43;4.67;;;9.40;1.00;;;;;;5093857;28;20695;-70
2022/03/23 00:53:04;;;;;;;6.40;5.60;;;9.40;1.00;;;;;;5093491;28;20729;-70
2022/03/23 00:55:31;;;;;;;23.23;6.10;;;9.40;1.00;;;;;;5093693;28;20673;-72
2022/03/23 00:57:58;;;;;;;5.70;4.77;;;9.30;1.00;;;;;;5093577;28;20639;-72
2022/03/23 01:00:26;;;;;;;6.27;5.20;;;9.40;1.00;;;;;;5093889;28;20206;-71
2022/03/23 01:02:53;;;;;;;7.67;5.27;;;9.30;1.00;;;;;;5093282;28;20295;-72
2022/03/23 01:05:20;;;;;;;6.10;4.93;;;9.30;1.00;;;;;;5093871;28;20251;-73
2022/03/23 01:07:48;;;;;;;7.53;5.43;;;9.30;1.00;;;;;;5093578;28;20197;-71
2022/03/23 01:10:15;;;;;;;6.50;4.73;;;9.30;1.00;;;;;;5093611;28;20550;-73
2022/03/23 01:12:44;;;;;;;7.10;5.27;;;9.40;1.00;;;;;;5093840;28;20255;-71
2022/03/23 01:15:15;;;;;;;7.47;5.37;;;9.30;1.00;;;;;;5093412;28;20202;-71
2022/03/23 01:17:43;;;;;;;6.47;5.77;;;9.30;1.00;;;;;;5093797;28;20274;-70
2022/03/23 01:20:11;;;;;;;6.57;5.20;;;9.30;1.00;;;;;;5093034;28;20210;-72
2022/03/23 01:22:40;;;;;;;7.57;6.07;;;9.30;1.00;;;;;;5093392;28;20210;-70
2022/03/23 01:25:09;;;;;;;7.97;5.73;;;9.20;1.00;;;;;;5092742;28;20718;-72
2022/03/23 01:27:36;;;;;;;6.30;4.90;;;9.30;1.00;;;;;;5093303;28;20247;-71
2022/03/23 01:30:05;;;;;;;6.30;5.23;;;9.30;1.00;;;;;;5092636;28;20646;-72
2022/03/23 01:32:32;;;;;;;7.90;5.50;;;9.30;1.00;;;;;;5093339;28;20233;-70
2022/03/23 01:35:00;;;;;;;6.57;5.73;;;9.20;1.00;;;;;;5092852;28;20205;-72
2022/03/23 01:37:27;;;;;;;6.37;4.60;;;9.20;1.00;;;;;;5092896;28;20669;-72
2022/03/23 01:39:54;;;;;;;6.53;4.50;;;9.30;1.00;;;;;;5092591;28;20197;-73
2022/03/23 01:42:21;;;;;;;9.27;4.40;;;9.30;1.00;;;;;;5092805;28;20197;-72
2022/03/23 01:44:48;;;;;;;6.93;5.50;;;9.10;1.00;;;;;;5092562;28;20627;-71
2022/03/23 01:47:17;;;;;;;6.57;5.67;;;9.10;1.00;;;;;;5093319;28;20205;-69
2022/03/23 01:49:46;;;;;;;6.23;5.10;;;9.30;1.00;;;;;;5093230;28;20209;-72
2022/03/23 01:52:17;;;;;;;10.07;5.27;;;9.30;1.00;;;;;;5092842;28;20225;-71
2022/03/23 01:54:44;;;;;;;5.47;4.43;;;9.20;1.00;;;;;;5092846;28;20255;-70
2022/03/23 01:57:13;;;;;;;6.60;6.00;;;9.40;1.00;;;;;;5092613;28;20253;-71
2022/03/23 01:59:41;;;;;;;7.07;5.37;;;9.30;1.00;;;;;;5093213;28;20202;-71
2022/03/23 02:02:09;;;;;;;5.07;4.67;;;9.30;1.00;;;;;;5092384;28;20205;-72
2022/03/23 02:04:37;;;;;;;7.87;5.30;;;9.20;1.00;;;;;;5092810;28;20205;-71
2022/03/23 02:07:04;;;;;;;6.90;6.27;;;9.40;1.00;;;;;;5091855;28;20201;-71
2022/03/23 02:09:33;;;;;;;5.53;5.03;;;9.30;1.00;;;;;;5092451;28;20206;-69
2022/03/23 02:12:02;;;;;;;4.90;4.40;;;9.30;1.00;;;;;;5092194;28;20233;-71
2022/03/23 02:14:29;;;;;;;7.50;5.83;;;9.30;1.00;;;;;;5092593;28;20201;-71
2022/03/23 02:16:56;;;;;;;6.27;5.00;;;9.30;1.00;;;;;;5092140;28;20202;-71
2022/03/23 02:19:23;;;;;;;5.87;4.67;;;9.20;1.00;;;;;;5092348;28;20259;-71
2022/03/23 02:21:53;;;;;;;7.60;5.37;;;9.40;1.00;;;;;;5091796;28;20205;-72
2022/03/23 02:24:23;;;;;;;7.80;5.27;;;9.30;1.00;;;;;;5072819;28;20561;-71
2022/03/23 02:26:51;;;;;;;5.30;4.33;;;9.20;1.00;;;;;;5071376;28;20201;-73
2022/03/23 02:29:19;;;;;;;11.00;5.03;;;9.40;1.00;;;;;;5071804;28;20670;-72
2022/03/23 02:31:46;;;;;;;5.50;5.00;;;9.20;1.00;;;;;;5071688;28;20230;-73
2022/03/23 02:34:13;;;;;;;6.17;5.57;;;9.40;1.00;;;;;;5072062;28;20206;-72
2022/03/23 02:36:41;;;;;;;6.50;5.20;;;9.30;1.00;;;;;;5071688;28;20203;-71
2022/03/23 02:39:09;;;;;;;6.33;4.83;;;9.30;1.00;;;;;;5071287;28;20263;-71
2022/03/23 02:41:36;;;;;;;6.10;5.60;;;9.40;1.00;;;;;;5071708;28;20214;-73
2022/03/23 02:44:03;;;;;;;5.73;5.13;;;9.20;1.00;;;;;;5071204;28;20213;-72
2022/03/23 02:46:35;;;;;;;6.50;5.07;;;9.30;1.00;;;;;;5071606;28;20202;-72
2022/03/23 02:49:02;;;;;;;5.93;4.43;;;9.20;1.00;;;;;;5071161;28;20209;-72
2022/03/23 02:51:29;;;;;;;5.80;5.20;;;9.30;1.00;;;;;;5070339;28;20638;-73
2022/03/23 03:02:27;;;;;;;5.73;4.97;;;9.20;1.00;;;;;;5071398;28;20248;-72
2022/03/23 03:04:54;;;;;;;5.40;4.87;;;9.30;1.00;;;;;;5070511;28;20551;-71
2022/03/23 03:07:21;;;;;;;5.43;4.93;;;9.30;1.00;;;;;;5071311;28;20206;-72
2022/03/23 03:09:48;;;;;;;5.37;4.57;;;9.20;1.00;;;;;;5070806;28;20254;-71
2022/03/23 03:12:17;;;;;;;5.33;4.57;;;9.20;1.00;;;;;;5071149;28;20774;-71
2022/03/23 03:14:44;;;;;;;5.13;4.63;;;9.20;1.00;;;;;;5071279;28;20670;-71
2022/03/23 03:17:11;;;;;;;5.90;4.70;;;9.10;1.00;;;;;;5071078;28;20206;-72
2022/03/23 03:19:38;;;;;;;6.43;5.83;;;9.10;1.00;;;;;;5070772;28;20696;-69
2022/03/23 03:22:05;;;;;;;6.07;4.80;;;9.20;1.00;;;;;;5070651;28;20263;-69
2022/03/23 03:24:32;;;;;;;4.83;3.93;;;9.30;1.00;;;;;;5070967;28;20208;-69
2022/03/23 03:26:59;;;;;;;5.10;4.57;;;9.30;1.00;;;;;;5070458;28;20206;-70
2022/03/23 03:29:28;;;;;;;6.67;4.83;;;9.20;1.00;;;;;;5070995;28;20199;-69
2022/03/23 03:31:55;;;;;;;4.40;4.00;;;9.20;1.00;;;;;;5070271;28;20226;-70
2022/03/23 03:34:22;;;;;;;5.43;4.87;;;9.20;1.00;;;;;;5070636;28;20256;-69
2022/03/23 03:36:48;;;;;;;8.03;5.00;;;9.00;1.00;;;;;;5070382;28;20255;-71
2022/03/23 03:39:15;;;;;;;6.33;5.67;;;8.90;1.00;;;;;;5070704;28;20248;-69
2022/03/23 03:41:42;;;;;;;7.20;4.73;;;9.10;1.00;;;;;;5071182;28;20202;-73
2022/03/23 03:44:11;;;;;;;6.67;5.00;;;9.20;1.00;;;;;;5070500;28;20209;-72
2022/03/23 03:46:40;;;;;;;5.03;4.50;;;9.10;1.00;;;;;;5070993;28;20245;-72
2022/03/23 03:49:07;;;;;;;5.10;4.60;;;9.30;1.00;;;;;;5070160;28;20238;-74
2022/03/23 03:51:34;;;;;;;5.17;4.70;;;9.20;1.00;;;;;;5070318;28;20216;-70
2022/03/23 03:54:01;;;;;;;12.00;5.27;;;9.30;1.00;;;;;;5070150;28;20293;-72
2022/03/23 03:56:28;;;;;;;5.97;4.60;;;9.30;1.00;;;;;;5070773;28;20248;-72
2022/03/23 03:58:55;;;;;;;5.10;4.70;;;9.30;1.00;;;;;;5070448;28;20218;-72
2022/03/23 04:01:22;;;;;;;5.23;4.83;;;9.30;1.00;;;;;;5070656;28;20202;-72
2022/03/23 04:03:51;;;;;;;5.40;4.63;;;9.10;1.00;;;;;;5072987;28;20202;-70
2022/03/23 04:06:18;;;;;;;6.90;4.50;;;9.30;1.00;;;;;;5074460;28;20672;-71
2022/03/23 04:08:45;;;;;;;4.87;4.23;;;9.30;1.00;;;;;;5075101;28;20202;-71
2022/03/23 04:11:12;;;;;;;7.07;4.70;;;9.30;1.00;;;;;;5074688;28;20198;-71
2022/03/23 04:13:39;;;;;;;5.53;4.40;;;9.30;1.00;;;;;;5074633;28;20287;-71
2022/03/23 04:16:06;;;;;;;5.17;4.67;;;9.30;1.00;;;;;;5074074;28;20206;-74
2022/03/23 04:18:33;;;;;;;4.33;3.93;;;9.10;1.00;;;;;;5074063;28;20281;-73
2022/03/23 04:21:01;;;;;;;4.73;4.33;;;9.00;1.00;;;;;;5073841;28;20278;-72
2022/03/23 04:23:28;;;;;;;4.93;4.47;;;9.20;1.00;;;;;;5074358;28;20210;-74
2022/03/23 04:25:56;;;;;;;6.30;4.57;;;9.20;1.00;;;;;;5073891;28;20206;-73
2022/03/23 04:28:23;;;;;;;6.23;4.13;;;9.30;1.00;;;;;;5074286;28;20202;-72
2022/03/23 04:30:50;;;;;;;4.93;4.03;;;9.30;1.00;;;;;;5073789;28;20202;-72
2022/03/23 04:33:17;;;;;;;5.67;5.07;;;9.30;1.00;;;;;;5073792;28;20280;-73
2022/03/23 04:35:44;;;;;;;9.93;5.20;;;9.10;1.00;;;;;;5074570;28;20202;-73
2022/03/23 04:38:12;;;;;;;6.23;5.23;;;9.20;1.00;;;;;;5073906;28;20210;-73
2022/03/23 04:40:39;;;;;;;6.57;4.90;;;9.10;1.00;;;;;;5074073;28;20252;-74
2022/03/23 04:43:06;;;;;;;8.00;4.53;;;9.20;1.00;;;;;;5073524;28;20206;-73
2022/03/23 04:45:33;;;;;;;7.57;5.83;;;9.20;1.00;;;;;;5073875;28;20198;-74
2022/03/23 04:48:00;;;;;;;6.27;4.90;;;9.20;1.00;;;;;;5073200;28;20197;-72
2022/03/23 04:50:27;;;;;;;12.47;5.30;;;9.30;1.00;;;;;;5073757;28;20271;-71
2022/03/23 04:52:54;;;;;;;5.87;4.90;;;9.20;1.00;;;;;;5073256;28;20234;-71
2022/03/23 04:55:22;;;;;;;6.33;4.93;;;9.30;1.00;;;;;;5073798;28;20203;-72
2022/03/23 04:57:49;;;;;;;4.10;3.70;;;9.30;1.00;;;;;;5073226;28;20202;-71
2022/03/23 05:00:20;;;;;;;5.67;4.83;;;9.20;1.00;;;;;;5073476;28;20202;-71
2022/03/23 05:02:48;;;;;;;6.27;5.67;;;9.10;1.00;;;;;;5073196;28;20249;-70
2022/03/23 05:05:16;;;;;;;6.03;5.43;;;9.10;1.00;;;;;;5073630;28;20289;-71
2022/03/23 05:07:44;;;;;;;5.80;4.83;;;9.00;1.00;;;;;;5073909;28;20198;-72
2022/03/23 05:10:12;;;;;;;7.43;5.43;;;9.10;1.00;;;;;;5073391;28;20255;-72
2022/03/23 05:12:41;;;;;;;4.73;4.20;;;9.20;1.00;;;;;;5073239;28;20225;-72
2022/03/23 05:15:09;;;;;;;5.77;4.53;;;9.30;1.00;;;;;;5072220;28;20202;-72
2022/03/23 05:17:37;;;;;;;7.50;5.80;;;9.30;1.00;;;;;;5073268;28;20202;-72
2022/03/23 05:20:05;;;;;;;5.43;4.13;;;9.30;1.00;;;;;;5073051;28;20202;-74
2022/03/23 05:22:33;;;;;;;6.37;5.33;;;9.20;1.00;;;;;;5073359;28;20202;-72
2022/03/23 05:25:00;;;;;;;8.50;6.17;;;9.20;1.00;;;;;;5072719;28;20611;-73
2022/03/23 05:27:27;;;;;;;7.13;4.50;;;9.10;1.00;;;;;;5073059;28;20275;-75
2022/03/23 05:29:55;;;;;;;5.53;4.53;;;9.30;1.00;;;;;;5072622;28;20202;-72
2022/03/23 05:32:22;;;;;;;6.20;5.03;;;9.30;1.00;;;;;;5073162;28;20226;-72
2022/03/23 05:34:50;;;;;;;7.97;6.30;;;9.30;1.00;;;;;;5072744;28;20214;-72
2022/03/23 05:37:17;;;;;;;6.37;4.63;;;9.30;1.00;;;;;;5072878;28;20658;-73
2022/03/23 05:39:45;;;;;;;6.13;5.40;;;9.30;1.00;;;;;;5073223;28;20301;-74
2022/03/23 05:42:12;;;;;;;8.47;4.93;;;9.30;1.00;;;;;;5072889;28;20203;-72
2022/03/23 05:44:40;;;;;;;6.17;4.97;;;9.10;1.00;;;;;;5072819;28;20201;-73
2022/03/23 05:47:08;;;;;;;8.70;5.00;;;9.10;1.00;;;;;;5072402;28;20683;-74
2022/03/23 05:49:35;;;;;;;4.63;4.23;;;9.10;1.00;;;;;;5072658;28;20210;-73
2022/03/23 05:52:03;;;;;;;6.63;5.13;;;9.30;1.00;;;;;;5072273;28;20260;-74
2022/03/23 05:54:30;;;;;;;5.97;5.10;;;9.20;1.00;;;;;;5072302;28;20357;-73
2022/03/23 05:56:57;;;;;;;6.67;6.00;;;9.00;1.00;;;;;;5071770;28;20268;-73
2022/03/23 05:59:24;;;;;;;9.50;5.40;;;9.10;1.00;;;;;;5072044;28;20685;-71
2022/03/23 06:01:51;;;;;;;6.70;6.00;;;9.30;1.00;;;;;;5071641;28;20206;-72
2022/03/23 06:04:19;;;;;;;7.07;5.87;;;9.20;1.00;;;;;;5072451;28;20207;-72
2022/03/23 06:06:46;;;;;;;8.40;5.90;;;9.10;1.00;;;;;;5072280;28;20264;-72
2022/03/23 06:09:13;;;;;;;6.03;5.43;;;9.30;1.00;;;;;;5072542;28;20210;-72
2022/03/23 06:11:40;;;;;;;7.33;4.63;;;9.30;1.00;;;;;;5072561;28;20225;-72
2022/03/23 06:14:07;;;;;;;5.30;4.80;;;9.30;1.00;;;;;;5071752;28;20234;-72
2022/03/23 06:16:34;;;;;;;5.87;5.27;;;9.30;1.00;;;;;;5072356;28;20203;-71
2022/03/23 06:19:01;;;;;;;5.97;5.10;;;9.30;1.00;;;;;;5071800;28;20206;-71
2022/03/23 06:21:29;;;;;;;7.53;5.27;;;9.30;1.00;;;;;;5072236;28;20205;-71
2022/03/23 06:23:57;;;;;;;7.63;5.20;;;9.30;1.00;;;;;;5071554;28;20236;-71
2022/03/23 06:26:24;;;;;;;5.93;4.67;;;9.30;1.00;;;;;;5071136;28;20202;-71
2022/03/23 06:28:51;;;;;;;8.97;5.87;;;9.30;1.00;;;;;;5071536;28;20206;-70
2022/03/23 06:31:18;;;;;;;6.63;5.37;;;9.30;1.00;;;;;;5071977;28;20202;-70
2022/03/23 06:33:45;;;;;;;6.63;4.37;;;9.40;1.00;;;;;;5071758;28;20295;-69
2022/03/23 06:36:12;;;;;;;5.13;4.53;;;9.50;1.00;;;;;;5072066;28;20210;-71
2022/03/23 06:38:40;;;;;;;7.27;5.13;;;9.40;1.00;;;;;;5071988;28;20557;-72
2022/03/23 06:41:08;;;;;;;5.30;4.80;;;9.50;1.00;;;;;;5071426;28;20206;-69
2022/03/23 06:43:35;;;;;;;9.63;6.60;;;9.60;1.00;;;;;;5071539;28;20216;-71
2022/03/23 06:46:04;;;;;;;4.90;4.43;;;9.60;1.00;;;;;;5071288;28;20202;-70
2022/03/23 06:48:30;;;;;;;6.87;5.03;;;9.70;1.00;;;;;;5071561;28;20207;-70
2022/03/23 06:50:57;;;;;;;8.00;5.00;;;9.70;1.00;;;;;;5070706;28;20210;-70
2022/03/23 06:53:24;;;;;;;6.93;5.00;;;9.80;1.00;;;;;;5071616;28;20314;-71
2022/03/23 06:55:53;;;;;;;6.33;4.60;;;9.80;1.00;;;;;;5070990;28;20739;-73
2022/03/23 06:58:21;;;;;;;5.73;5.10;;;9.90;1.00;;;;;;5071318;28;20203;-74
2022/03/23 07:00:48;;;;;;;5.63;4.57;;;10.00;1.00;;;;;;5070849;28;20205;-72
2022/03/23 07:03:15;;;;;;;7.87;5.80;;;10.10;1.00;;;;;;5071278;28;20694;-73
2022/03/23 07:05:42;;;;;;;7.07;5.37;;;10.10;1.00;;;;;;5071493;28;20267;-73
2022/03/23 07:10:54;;;;;;;6.03;5.43;;;10.30;1.00;;;;;;5070712;28;20287;-74
2022/03/23 07:13:21;;;;;;;5.37;4.63;;;10.40;1.00;;;;;;5071347;28;20267;-75
2022/03/23 07:15:48;;;;;;;5.33;4.83;;;10.40;1.00;;;;;;5070995;28;20210;-71
2022/03/23 07:18:15;;;;;;;6.00;5.20;;;10.40;1.00;;;;;;5071540;28;20205;-69
2022/03/23 07:20:42;;;;;;;7.87;5.00;;;10.40;1.00;;;;;;5071404;28;20206;-72
2022/03/23 07:23:09;;;;;;;7.27;4.53;;;10.60;1.00;;;;;;5070516;28;20727;-71
2022/03/23 07:25:36;;;;;;;5.37;4.23;;;10.80;1.00;;;;;;5070708;28;20206;-71
2022/03/23 07:28:05;;;;;;;8.97;5.30;;;10.60;1.00;;;;;;5070560;28;20203;-73
2022/03/23 07:30:33;;;;;;;8.27;5.47;;;10.70;1.00;;;;;;5070895;28;20202;-71
2022/03/23 07:33:00;;;;;;;15.17;6.53;;;10.80;1.00;;;;;;5070593;28;20253;-72
2022/03/23 07:35:28;;;;;;;5.83;5.20;;;10.90;1.00;;;;;;5070908;28;20323;-72
2022/03/23 07:37:55;;;;;;;6.83;5.20;;;11.00;1.00;;;;;;5070059;28;20253;-75
2022/03/23 07:40:22;;;;;;;7.27;4.40;;;11.10;1.00;;;;;;5076578;28;20202;-74
2022/03/23 07:42:49;;;;;;;7.63;4.50;;;11.10;1.00;;;;;;5070911;28;20202;-76
2022/03/23 07:45:17;;;;;;;7.03;4.90;;;11.30;1.00;;;;;;5072023;28;20275;-73
2022/03/23 07:47:45;;;;;;;6.63;5.97;;;11.40;1.00;;;;;;5079210;28;20256;-77
2022/03/23 07:50:12;;;;;;;5.03;4.33;;;11.40;1.00;;;;;;5080185;28;20278;-74
2022/03/23 07:52:39;;;;;;;5.43;4.93;;;11.40;1.00;;;;;;5074496;28;20263;-77
2022/03/23 07:55:06;;;;;;;5.50;4.87;;;11.50;1.00;;;;;;5079398;28;20295;-76
2022/03/23 07:57:33;;;;;;;15.93;6.40;;;11.70;1.00;;;;;;5081483;28;20217;-80
2022/03/23 08:00:00;;;;;;;7.90;4.27;;;11.50;1.00;;;;;;5071368;28;20554;-77
2022/03/23 08:02:29;;;;;;;7.60;5.90;;;11.60;1.00;;;;;;5070498;28;20669;-76
2022/03/23 08:04:56;;;;;;;6.93;4.30;;;11.70;1.00;;;;;;5071075;28;20279;-75
2022/03/23 08:07:23;;;;;;;6.60;5.00;;;11.90;1.00;;;;;;5070649;28;20252;-75
2022/03/23 08:09:50;;;;;;;7.47;4.67;;;11.90;1.00;;;;;;5069978;28;20208;-76
2022/03/23 08:12:17;;;;;;;5.93;4.20;;;12.00;1.00;;;;;;5073049;28;20271;-70
2022/03/23 08:14:46;;;;;;;4.17;3.77;;;12.20;1.00;;;;;;5078993;28;20621;-74
2022/03/23 08:17:13;;;;;;;6.63;5.13;;;12.00;1.00;;;;;;5083291;28;20198;-75
2022/03/23 08:19:41;;;;;;;7.43;4.37;;;12.20;1.00;;;;;;5086977;28;20202;-72
2022/03/23 08:22:09;;;;;;;5.93;5.03;;;12.10;1.00;;;;;;5087441;28;20201;-72
2022/03/23 08:24:36;;;;;;;5.37;4.77;;;12.20;1.00;;;;;;5087268;28;20210;-70
2022/03/23 08:27:03;;;;;;;5.60;4.60;;;12.10;1.00;;;;;;5086616;28;20263;-71
2022/03/23 08:29:30;;;;;;;6.63;4.93;;;12.30;1.00;;;;;;5075821;28;20215;-69
2022/03/23 08:31:57;;;;;;;7.77;4.40;;;12.60;1.00;;;;;;5081207;28;20266;-69
2022/03/23 08:34:25;;;;;;;7.00;4.30;;;12.70;1.00;;;;;;5089404;28;20290;-70
2022/03/23 08:36:54;;;;;;;6.00;4.20;;;12.50;1.00;;;;;;5088498;28;20206;-70
2022/03/23 08:39:21;;;;;;;8.13;4.50;;;12.60;1.00;;;;;;5089387;28;20263;-72
2022/03/23 08:41:48;;;;;;;4.90;4.40;;;12.80;1.00;;;;;;5089944;28;20201;-70
2022/03/23 08:44:15;;;;;;;6.07;4.50;;;12.80;1.00;;;;;;5090751;28;20250;-71
2022/03/23 08:46:43;;;;;;;5.15;3.78;;;13.10;1.00;;;;;;5090782;28;20259;-70
2022/03/23 08:49:11;;;;;;;4.80;3.97;;;12.60;1.00;;;;;;5092045;28;20247;-70
2022/03/23 08:51:38;;;;;;;5.25;4.75;;;12.50;1.00;;;;;;5083359;28;20218;-71
2022/03/23 08:54:06;;;;;;;10.38;4.55;;;12.80;1.00;;;;;;5083773;28;20330;-70
2022/03/23 08:56:33;;;;;;;7.82;4.10;;;13.30;1.00;;;;;;5074852;28;20209;-72
2022/03/23 08:59:01;;;;;;;6.50;4.25;;;13.40;1.00;;;;;;5073417;28;20268;-72
2022/03/23 09:01:28;;;;;;;5.32;3.90;;;13.70;1.00;;;;;;5078872;28;20673;-70
2022/03/23 09:04:00;;;;;;;5.30;3.92;;;13.80;1.00;;;;;;5085967;28;20738;-71
2022/03/23 09:06:27;;;;;;;5.10;3.80;;;13.60;1.00;;;;;;5079679;28;20283;-71
2022/03/23 09:08:54;;;;;;;6.20;3.75;;;13.30;1.00;;;;;;5082680;28;20209;-72
2022/03/23 09:11:23;;;;;;;5.68;4.00;;;14.50;1.00;;;;;;5088637;28;20210;-73
2022/03/23 09:13:50;;;;;;;5.65;3.63;;;14.30;1.00;;;;;;5074995;28;20788;-70
2022/03/23 09:16:17;;;;;;;6.72;4.13;;;14.40;1.00;;;;;;5076717;28;20266;-73
2022/03/23 09:18:44;;;;;;;6.38;4.35;;;15.20;1.00;;;;;;5073525;28;20657;-72
2022/03/23 09:21:11;;;;;;;5.57;4.13;;;15.20;1.00;;;;;;5072997;28;20214;-71
2022/03/23 09:23:38;;;;;;;7.38;4.35;;;15.00;1.00;;;;;;5079040;28;20680;-70
2022/03/23 09:26:08;;;;;;;4.60;4.07;;;14.80;1.00;;;;;;5092925;28;20688;-71
2022/03/23 09:28:36;;;;;;;7.60;4.47;;;13.90;1.00;;;;;;5093488;28;20267;-70
2022/03/23 09:31:03;;;;;;;7.10;4.50;;;13.90;1.00;;;;;;5089149;28;20203;-69
2022/03/23 09:33:31;;;;;;;5.38;4.15;;;14.20;1.00;;;;;;5080197;28;20206;-69
2022/03/23 09:35:58;;;;;;;6.30;4.32;;;14.30;1.00;;;;;;5084864;28;20259;-71
2022/03/23 09:38:26;;;;;;;3.95;3.58;;;15.00;1.00;;;;;;5085694;28;20259;-75
2022/03/23 09:40:54;;;;;;;4.75;4.25;;;15.10;1.00;;;;;;5086310;28;20228;-75
2022/03/23 09:43:23;;;;;;;4.65;4.18;;;14.70;1.00;;;;;;5085510;28;20201;-71
2022/03/23 09:45:52;;;;;;;4.93;3.78;;;14.10;1.00;;;;;;5085669;28;20646;-71
2022/03/23 09:48:21;;;;;;;6.35;4.18;;;13.90;1.00;;;;;;5093119;28;20615;-70
2022/03/23 09:50:52;;;;;;;4.60;4.07;;;13.80;1.00;;;;;;5091997;28;20597;-71
2022/03/23 09:53:21;;;;;;;5.63;4.25;;;13.90;1.00;;;;;;5093130;28;20202;-75
2022/03/23 09:55:49;;;;;;;7.18;3.95;;;14.30;1.00;;;;;;5092440;28;20210;-73
2022/03/23 09:58:16;;;;;;;6.82;4.03;;;14.90;1.00;;;;;;5092906;28;20721;-72
2022/03/23 10:00:45;;;;;;;6.15;4.38;;;14.60;1.00;;;;;;5092443;28;20539;-72
2022/03/23 10:03:51;;;;;;;5.07;4.57;;;15.00;1.00;;;;;;5092198;28;20213;-74
2022/03/23 10:06:53;;;;;;;8.25;4.55;;;15.00;1.00;;;;;;5071918;28;20209;-75
2022/03/23 10:10:06;;;;;;;7.13;4.75;;;15.00;1.00;;;;;;5078086;28;20201;-74
2022/03/23 10:13:25;;;;;;;4.32;3.92;;;16.40;1.00;;;;;;5081098;28;20213;-73
2022/03/23 10:16:36;;;;;;;4.88;3.63;;;15.80;1.00;;;;;;5088934;28;20205;-75
2022/03/23 10:19:03;;;;;;;4.85;4.22;;;15.90;1.00;;;;;;5091832;28;20292;-70
2022/03/23 10:21:34;;;;;;;6.60;3.45;;;16.70;1.00;;;;;;5086251;28;20677;-72
2022/03/23 10:24:33;;;;;;;8.15;4.60;;;17.30;1.00;;;;;;5075257;28;20676;-72
2022/03/23 10:27:09;;;;;;;4.97;4.30;;;18.30;1.00;;;;;;5074432;28;20227;-71
2022/03/23 10:29:42;;;;;;;3.95;3.47;;;18.70;1.00;;;;;;5089806;28;20206;-71
2022/03/23 10:32:10;;;;;;;5.13;4.72;;;18.00;1.00;;;;;;5087880;28;20616;-74
2022/03/23 10:34:38;;;;;;;5.50;4.22;;;19.10;1.00;;;;;;5090102;28;20278;-73
2022/03/23 10:37:06;;;;;;;5.75;5.15;;;18.40;1.00;;;;;;5090828;28;20286;-70
2022/03/23 10:39:33;;;;;;;5.68;4.30;;;15.40;1.00;;;;;;5091234;28;20296;-72
2022/03/23 10:42:06;;;;;;;6.75;5.38;;;14.70;1.00;;;;;;5079013;28;20220;-70
2022/03/23 10:44:33;;;;;;;6.57;5.70;;;14.80;1.00;;;;;;5071633;28;20260;-73
2022/03/23 10:47:01;;;;;;;6.75;5.00;;;14.90;1.00;;;;;;5071304;28;20626;-71
2022/03/23 10:49:36;;;;;;;4.88;4.25;;;14.80;1.00;;;;;;5071427;28;20302;-70
2022/03/23 10:52:13;;;;;;;7.55;5.72;;;14.60;1.00;;;;;;5071061;28;20724;-73
2022/03/23 10:54:52;;;;;;;4.72;4.20;;;14.50;1.00;;;;;;5071634;28;20240;-72
2022/03/23 10:57:21;;;;;;;7.50;4.57;;;14.50;1.00;;;;;;5071496;28;20206;-70
2022/03/23 10:59:49;;;;;;;4.90;4.05;;;14.80;1.00;;;;;;5080325;28;20262;-72
2022/03/23 11:02:18;;;;;;;10.20;6.20;;;15.00;1.00;;;;;;5076210;28;20217;-72
2022/03/23 11:04:50;;;;;;;5.63;4.32;;;15.30;1.00;;;;;;5079610;28;20201;-72
2022/03/23 11:07:25;;;;;;;5.22;4.60;;;14.80;1.00;;;;;;5085208;28;20241;-73
2022/03/23 11:18:22;;;;;;;6.00;4.43;;;14.90;1.00;;;;;;5065453;28;20239;-71
2022/03/23 11:20:51;;;;;;;5.13;4.40;;;14.90;1.00;;;;;;5062728;28;20206;-71
2022/03/23 11:23:20;;;;;;;6.82;5.63;;;14.90;1.00;;;;;;5076289;28;20207;-71
2022/03/23 11:25:49;;;;;;;6.85;4.82;;;15.00;1.00;;;;;;5075720;28;20678;-70
2022/03/23 11:28:17;;;;;;;6.13;5.05;;;15.00;1.00;;;;;;5083373;28;20212;-72
2022/03/23 11:30:46;;;;;;;4.97;4.47;;;15.30;1.00;;;;;;5084705;28;20206;-71
2022/03/23 11:33:15;;;;;;;8.30;5.28;;;15.00;1.00;;;;;;5091616;28;20234;-73
2022/03/23 11:35:48;;;;;;;6.18;5.10;;;14.90;1.00;;;;;;5083364;28;20727;-71
2022/03/23 11:38:17;;;;;;;5.32;4.22;;;15.00;1.00;;;;;;5079054;28;20210;-69
2022/03/23 11:40:45;;;;;;;6.82;4.22;;;15.10;1.00;;;;;;5078988;28;20673;-70
2022/03/23 11:43:13;;;;;;;6.10;4.32;;;14.90;1.00;;;;;;5091316;28;20205;-70
2022/03/23 11:45:44;;;;;;;5.25;4.75;;;15.20;1.00;;;;;;5086926;28;20265;-70
2022/03/23 11:48:31;;;;;;;7.53;4.85;;;15.30;1.00;;;;;;5070129;28;20662;-72
2022/03/23 11:51:17;;;;;;;8.05;5.20;;;15.00;1.00;;;;;;5072187;28;20276;-72
2022/03/23 11:53:56;;;;;;;7.13;4.30;;;15.30;1.00;;;;;;5087334;28;20213;-72
2022/03/23 11:56:24;;;;;;;5.07;4.57;;;15.40;1.00;;;;;;5081664;28;20205;-73
2022/03/23 11:58:52;;;;;;;8.60;4.75;;;15.50;1.00;;;;;;5087592;28;20216;-76
2022/03/23 12:01:21;;;;;;;5.85;4.13;;;15.70;1.00;;;;;;5090334;28;20255;-71
2022/03/23 12:03:50;;;;;;;5.35;4.85;;;15.40;1.00;;;;;;5090627;28;20235;-69
2022/03/23 12:06:19;;;;;;;4.20;3.50;;;15.20;1.00;;;;;;5090785;28;20300;-71
2022/03/23 12:08:50;;;;;;;5.15;4.65;;;15.10;1.00;;;;;;5091048;28;20267;-71
2022/03/23 12:11:38;;;;;;;3.85;3.30;;;15.20;1.00;;;;;;5090743;28;20296;-70
2022/03/23 12:14:07;;;;;;;5.88;5.07;;;15.00;1.00;;;;;;5089904;28;20205;-70
2022/03/23 12:17:05;;;;;;;5.45;4.18;;;15.20;1.00;;;;;;5090559;28;20571;-76
2022/03/23 12:19:33;;;;;;;6.50;5.22;;;15.80;1.00;;;;;;5090816;28;20258;-73
2022/03/23 12:22:15;;;;;;;6.53;4.43;;;15.60;1.00;;;;;;5089968;28;20252;-73
2022/03/23 12:24:53;;;;;;;6.90;4.10;;;15.30;1.00;;;;;;5093809;28;20220;-71
2022/03/23 12:27:32;;;;;;;4.68;4.20;;;15.40;1.00;;;;;;5081050;28;20202;-71
2022/03/23 12:30:02;;;;;;;6.50;4.38;;;15.50;1.00;;;;;;5083055;28;20205;-71
2022/03/23 12:32:39;;;;;;;7.70;4.70;;;15.70;1.00;;;;;;5094137;28;20209;-71
2022/03/23 12:35:07;;;;;;;3.78;3.40;;;15.60;1.00;;;;;;5086069;28;20285;-71
2022/03/23 12:37:39;;;;;;;6.80;4.80;;;15.40;1.00;;;;;;5093943;28;20255;-70
2022/03/23 12:40:11;;;;;;;4.22;3.85;;;15.40;1.00;;;;;;5084251;28;20288;-70
2022/03/23 12:42:42;;;;;;;7.03;4.30;;;15.70;1.00;;;;;;5082520;28;20206;-72
2022/03/23 12:45:15;;;;;;;6.35;4.05;;;15.80;1.00;;;;;;5083856;28;20770;-71
2022/03/23 12:47:55;;;;;;;4.40;3.90;;;15.80;1.00;;;;;;5091023;28;20202;-71
2022/03/23 12:59:14;;;;;;;6.55;4.80;;;15.70;1.00;;;;;;5082303;28;20205;-75
2022/03/23 13:01:41;;;;;;;5.35;4.85;;;16.00;1.00;;;;;;5080656;28;20198;-72
2022/03/23 13:04:09;;;;;;;5.80;4.70;;;15.80;1.00;;;;;;5077748;28;20202;-72
2022/03/23 13:06:39;;;;;;;5.53;4.97;;;16.00;1.00;;;;;;5075568;28;20217;-72
2022/03/23 13:09:12;;;;;;;5.20;3.90;;;15.60;1.00;;;;;;5081681;28;20210;-76
2022/03/23 13:11:42;;;;;;;5.28;3.78;;;15.70;1.00;;;;;;5086896;28;20239;-72
2022/03/23 13:14:09;;;;;;;8.45;4.63;;;15.50;1.00;;;;;;5073000;28;20255;-72
2022/03/23 13:16:39;;;;;;;5.55;4.55;;;15.90;1.00;;;;;;5074371;28;20237;-75
2022/03/23 13:19:08;;;;;;;5.72;4.03;;;16.00;1.00;;;;;;5073279;28;20234;-72
2022/03/23 13:21:38;;;;;;;5.03;4.55;;;16.10;1.00;;;;;;5078121;28;20595;-74
2022/03/23 13:24:06;;;;;;;4.60;4.20;;;16.40;1.00;;;;;;5093150;28;20201;-72
2022/03/23 13:26:35;;;;;;;6.18;4.35;;;15.80;1.00;;;;;;5093512;28;20278;-73
2022/03/23 13:29:05;;;;;;;5.13;4.22;;;16.00;1.00;;;;;;5092638;28;20255;-72
2022/03/23 13:31:34;;;;;;;4.10;3.80;;;16.10;1.00;;;;;;5093413;28;20201;-72
2022/03/23 13:34:03;;;;;;;8.52;4.32;;;15.90;1.00;;;;;;5092582;28;20248;-72
2022/03/23 13:36:32;;;;;;;4.43;4.03;;;16.40;1.00;;;;;;5090799;28;20233;-72
2022/03/23 13:39:01;;;;;;;4.50;4.10;;;16.10;1.00;;;;;;5092282;28;20213;-72
2022/03/23 13:44:15;;;;;;;6.03;5.43;;;15.60;1.00;;;;;;5093111;28;20247;-74